Time;durP1;ratioP1;P1;durP2;ratioP2;P2;SDS_P1;SDS_P2;PMS_P1;PMS_P2;Temp;Humidity;BMP_temperature;BMP_pressure;BME280_temperature;BME280_humidity;BME280_pressure;Samples;Min_cycle;Max_cycle;Signal;HPM_P1;HPM_P2
2021/07/14 00:01:44;;;;;;;16.08;9.77;;;;;;;16.67;88.42;101378.56;6124951;23;20134;-83
2021/07/14 00:04:29;;;;;;;21.70;9.75;;;;;;;16.67;88.60;101378.56;6125213;23;20068;-86
2021/07/14 00:06:57;;;;;;;21.83;10.82;;;;;;;16.67;88.80;101382.97;6099287;23;20014;-82
2021/07/14 00:09:43;;;;;;;21.80;9.90;;;;;;;16.67;88.57;101388.28;6125574;23;20010;-82
2021/07/14 00:12:10;;;;;;;21.25;10.68;;;;;;;16.67;88.54;101389.19;6124434;23;20088;-84
2021/07/14 00:23:07;;;;;;;25.40;11.35;;;;;;;16.66;88.87;101386.53;6124231;23;20102;-83
2021/07/14 00:25:53;;;;;;;16.73;10.82;;;;;;;16.66;88.66;101382.09;6123726;23;20026;-84
2021/07/14 00:28:40;;;;;;;22.95;12.25;;;;;;;16.71;88.83;101379.41;6123690;23;20492;-83
2021/07/14 00:31:13;;;;;;;17.90;10.10;;;;;;;16.72;88.74;101385.63;6123986;23;20006;-80
2021/07/14 00:33:39;;;;;;;24.67;11.57;;;;;;;16.74;88.78;101391.81;6126747;23;20487;-81
2021/07/14 00:36:05;;;;;;;26.02;11.95;;;;;;;16.74;88.90;101395.38;6124018;23;20080;-81
2021/07/14 00:38:30;;;;;;;26.15;13.20;;;;;;;16.66;89.19;101391.84;6125651;23;20017;-84
2021/07/14 00:40:56;;;;;;;26.60;13.02;;;;;;;16.60;89.41;101397.16;6123783;23;20010;-80
2021/07/14 00:43:47;;;;;;;26.50;13.48;;;;;;;16.58;89.57;101389.19;6124582;23;20009;-85
2021/07/14 00:46:40;;;;;;;25.88;13.43;;;;;;;16.59;89.44;101395.38;6123047;23;20064;-82
2021/07/14 00:49:06;;;;;;;32.92;14.75;;;;;;;16.59;89.62;101396.28;6124397;23;20010;-82
2021/07/14 00:51:52;;;;;;;27.15;13.75;;;;;;;16.59;89.79;101396.28;6124543;23;20078;-82
2021/07/14 00:54:38;;;;;;;29.05;13.75;;;;;;;16.58;89.98;101388.31;6120886;23;20018;-83
2021/07/14 00:57:06;;;;;;;32.35;15.52;;;;;;;16.60;89.81;101391.84;6121242;23;20014;-87
2021/07/14 00:59:47;;;;;;;29.27;14.32;;;;;;;16.60;90.05;101389.19;6123323;23;20114;-84
2021/07/14 01:02:33;;;;;;;34.30;15.38;;;;;;;16.57;90.30;101395.38;6121963;23;20010;-85
2021/07/14 01:05:08;;;;;;;41.53;16.00;;;;;;;16.58;90.08;101386.53;6122399;23;20059;-83
2021/07/14 01:08:09;;;;;;;;;;;;;;;;;;;;;
2021/07/14 01:11:08;;;;;;;47.10;19.17;;;;;;;16.58;90.36;101399.81;6117338;23;20125;-84
2021/07/14 01:14:04;;;;;;;44.78;19.92;;;;;;;16.60;90.48;101392.69;6073022;23;20026;-83
2021/07/14 01:17:06;;;;;;;52.38;20.67;;;;;;;16.63;90.34;101386.50;6094553;23;20053;-83
2021/07/14 01:20:14;;;;;;;54.22;21.42;;;;;;;16.63;90.47;101382.09;6094743;23;20010;-87
2021/07/14 01:22:52;;;;;;;57.47;22.98;;;;;;;16.64;90.28;101382.97;6093556;23;20006;-81
2021/07/14 01:25:44;;;;;;;50.70;21.90;;;;;;;16.59;90.83;101379.44;6091360;23;20003;-80
2021/07/14 01:28:10;;;;;;;52.13;22.02;;;;;;;16.60;90.96;101379.41;6091172;23;20014;-87
2021/07/14 01:31:00;;;;;;;59.88;23.98;;;;;;;16.59;90.84;101382.09;6093294;23;20377;-80
2021/07/14 01:33:31;;;;;;;46.28;21.20;;;;;;;16.63;90.71;101381.19;6091840;23;20033;-85
2021/07/14 01:36:26;;;;;;;50.05;23.23;;;;;;;16.64;90.73;101380.31;6092679;23;20086;-83
2021/07/14 01:39:05;;;;;;;58.97;23.73;;;;;;;16.61;91.12;101382.97;6092790;23;20037;-86
2021/07/14 01:41:52;;;;;;;59.40;25.95;;;;;;;16.61;90.84;101375.00;6093285;23;20489;-83
2021/07/14 01:44:21;;;;;;;56.15;24.05;;;;;;;16.63;91.05;101370.56;6092197;23;20057;-87
2021/07/14 01:46:47;;;;;;;53.10;24.38;;;;;;;16.66;90.91;101374.13;6092312;23;20002;-84
2021/07/14 01:49:17;;;;;;;60.13;25.10;;;;;;;16.67;90.65;101381.22;6092773;23;20078;-80
2021/07/14 01:51:49;;;;;;;57.33;24.83;;;;;;;16.72;90.76;101380.31;6093477;23;20014;-85
2021/07/14 01:54:23;;;;;;;60.95;24.75;;;;;;;16.68;90.51;101385.66;6092941;23;20042;-84
2021/07/14 01:57:17;;;;;;;51.80;23.98;;;;;;;16.65;90.39;101384.75;6045153;23;20011;-87
2021/07/14 01:59:45;;;;;;;46.88;21.50;;;;;;;16.66;90.68;101389.19;6093529;23;20021;-83
2021/07/14 02:02:16;;;;;;;46.97;20.15;;;;;;;16.68;90.35;101385.66;6093054;23;20006;-80
2021/07/14 02:05:03;;;;;;;47.63;19.85;;;;;;;16.72;90.08;101378.53;6093466;23;20317;-85
2021/07/14 02:07:47;;;;;;;39.45;19.48;;;;;;;16.74;89.99;101374.13;6095342;23;20014;-81
2021/07/14 02:10:56;;;;;;;45.45;21.00;;;;;;;16.71;89.85;101368.78;6092218;23;20017;-86
2021/07/14 02:13:51;;;;;;;43.35;18.75;;;;;;;16.76;89.73;101369.69;6114129;23;20026;-83
2021/07/14 02:16:56;;;;;;;39.25;17.92;;;;;;;16.76;89.47;101372.34;6098017;23;20021;-81
2021/07/14 02:19:22;;;;;;;46.05;20.42;;;;;;;16.74;89.94;101368.81;6123050;23;20014;-81
2021/07/14 02:21:49;;;;;;;38.10;16.55;;;;;;;16.77;89.50;101374.13;6123566;23;20006;-85
2021/07/14 02:24:27;;;;;;;44.08;17.10;;;;;;;16.76;88.96;101355.53;6123334;23;20021;-83
2021/07/14 02:27:07;;;;;;;30.25;14.52;;;;;;;16.77;89.19;101358.16;6121247;23;20018;-84
2021/07/14 02:29:51;;;;;;;29.83;15.45;;;;;;;16.78;88.59;101349.31;6122993;23;20026;-80
2021/07/14 02:32:28;;;;;;;34.60;16.23;;;;;;;16.77;88.74;101352.84;6121168;23;20337;-85
2021/07/14 02:35:16;;;;;;;31.02;15.73;;;;;;;16.79;88.57;101361.72;6123322;23;20543;-83
2021/07/14 02:38:23;;;;;;;33.70;18.42;;;;;;;16.78;88.50;101337.78;6122527;23;20046;-87
2021/07/14 02:41:05;;;;;;;37.53;16.95;;;;;;;16.74;88.29;101339.59;6121885;23;20013;-83
2021/07/14 02:44:10;;;;;;;34.97;17.20;;;;;;;16.67;88.64;101344.00;6121295;23;20006;-81
2021/07/14 02:47:03;;;;;;;30.30;16.77;;;;;;;16.70;88.82;101351.09;6115653;23;20429;-82
2021/07/14 02:49:51;;;;;;;37.70;18.45;;;;;;;16.71;88.87;101352.84;6122299;23;20037;-83
2021/07/14 02:52:21;;;;;;;29.73;16.25;;;;;;;16.74;88.72;101352.88;6122555;23;20033;-83
2021/07/14 02:55:08;;;;;;;28.15;16.98;;;;;;;16.68;89.06;101363.50;6124916;23;20009;-86
2021/07/14 02:57:44;;;;;;;32.47;18.08;;;;;;;16.68;89.15;101360.84;6096867;23;20025;-87
2021/07/14 03:00:10;;;;;;;32.00;17.13;;;;;;;16.68;89.20;101347.53;6123298;23;20021;-85
2021/07/14 03:02:56;;;;;;;29.95;15.50;;;;;;;16.71;88.96;101351.97;6123101;23;20058;-81
2021/07/14 03:05:44;;;;;;;27.48;16.10;;;;;;;16.67;88.90;101344.00;6119873;23;20010;-82
2021/07/14 03:08:14;;;;;;;23.13;13.93;;;;;;;16.64;88.56;101352.00;6122833;23;20025;-83
2021/07/14 03:10:46;;;;;;;23.05;13.35;;;;;;;16.66;88.50;101349.34;6122576;23;20010;-81
2021/07/14 03:13:36;;;;;;;20.20;13.10;;;;;;;16.63;88.47;101349.31;6119562;23;20025;-84
2021/07/14 03:16:06;;;;;;;24.48;13.52;;;;;;;16.66;88.30;101357.31;6123023;23;20006;-79
2021/07/14 03:19:01;;;;;;;23.17;14.18;;;;;;;16.66;88.47;101347.53;6121199;23;20421;-82
2021/07/14 03:21:48;;;;;;;28.23;14.05;;;;;;;16.64;88.99;101340.47;6123674;23;20021;-82
2021/07/14 03:24:33;;;;;;;29.70;16.17;;;;;;;16.63;88.91;101336.03;6122762;23;20791;-80
2021/07/14 03:27:32;;;;;;;29.75;16.42;;;;;;;16.58;88.92;101338.69;6120973;23;20014;-86
2021/07/14 03:30:21;;;;;;;33.40;16.65;;;;;;;16.58;89.19;101345.78;6122842;23;20014;-87
2021/07/14 03:32:47;;;;;;;31.30;17.58;;;;;;;16.59;88.79;101342.22;6121085;23;20006;-79
2021/07/14 03:35:14;;;;;;;34.70;18.65;;;;;;;16.60;88.95;101349.31;6122248;23;20014;-84
2021/07/14 03:38:03;;;;;;;30.33;18.60;;;;;;;16.57;89.30;101350.19;6123710;23;20010;-87
2021/07/14 03:44:39;;;;;;;29.98;16.00;;;;;;;16.62;88.94;101327.19;6121957;23;20017;-82
2021/07/14 03:47:28;;;;;;;29.40;16.15;;;;;;;16.63;89.29;101328.06;6122389;23;20013;-81
2021/07/14 03:50:38;;;;;;;31.23;16.52;;;;;;;16.63;88.99;101325.41;6121728;23;20018;-81
2021/07/14 03:53:09;;;;;;;29.50;15.88;;;;;;;16.66;88.68;101328.06;6121995;23;20041;-83
2021/07/14 03:56:14;;;;;;;28.95;15.82;;;;;;;16.68;88.80;101336.91;6121004;23;20006;-81
2021/07/14 03:59:15;;;;;;;26.48;15.93;;;;;;;16.69;88.64;101333.38;6096808;23;20452;-84
2021/07/14 04:02:04;;;;;;;25.08;14.38;;;;;;;16.68;88.88;101344.88;6122822;23;20013;-82
2021/07/14 04:04:30;;;;;;;24.92;15.10;;;;;;;16.65;88.74;101345.78;6123533;23;20024;-83
2021/07/14 04:07:31;;;;;;;23.67;14.48;;;;;;;16.66;88.73;101341.38;6124230;23;20033;-84
2021/07/14 04:10:34;;;;;;;24.27;14.55;;;;;;;16.63;89.13;101328.97;6123276;23;20018;-86
2021/07/14 04:13:37;;;;;;;35.38;15.48;;;;;;;16.65;89.23;101331.59;6126197;23;20406;-84
2021/07/14 04:16:20;;;;;;;27.00;15.75;;;;;;;16.63;89.21;101322.75;6125199;23;20438;-85
2021/07/14 04:19:14;;;;;;;27.02;14.77;;;;;;;16.65;89.12;101331.59;6124864;23;20037;-83
2021/07/14 04:22:03;;;;;;;32.47;16.35;;;;;;;16.63;89.19;101336.03;6124152;23;20054;-85
2021/07/14 04:25:38;;;;;;;;;;;;;;;;;;;;;
2021/07/14 04:29:07;;;;;;;;;;;;;;;;;;;;;
2021/07/14 04:32:01;;;;;;;27.30;16.13;;;;;;;16.62;88.79;101332.50;6124151;23;20086;-81
2021/07/14 04:35:22;;;;;;;;;;;;;;;;;;;;;
2021/07/14 04:38:24;;;;;;;;;;;;;;;;;;;;;
2021/07/14 04:43:46;;;;;;;21.38;15.23;;;;;;;16.66;88.57;101333.38;6064070;23;20217;-81
2021/07/14 04:46:21;;;;;;;24.77;13.93;;;;;;;16.74;87.69;101342.25;6122717;23;20013;-84
2021/07/14 04:49:14;;;;;;;27.45;14.68;;;;;;;16.74;87.69;101336.94;6123038;23;20039;-84
2021/07/14 04:51:47;;;;;;;26.20;15.30;;;;;;;16.71;88.02;101336.03;6122310;23;20014;-83
2021/07/14 04:54:44;;;;;;;34.45;14.75;;;;;;;16.75;88.04;101343.97;6121947;23;20013;-87
2021/07/14 04:57:36;;;;;;;31.30;15.10;;;;;;;16.76;87.76;101343.09;6121821;23;20061;-81
2021/07/14 05:00:54;;;;;;;;;;;;;;;;;;;;;
2021/07/14 05:03:31;;;;;;;34.75;15.90;;;;;;;16.75;88.05;101335.13;6062105;23;20025;-82
2021/07/14 05:10:28;;;;;;;38.85;17.67;;;;;;;16.68;88.23;101342.22;6004785;23;20093;-86
2021/07/14 05:13:39;;;;;;;35.13;15.27;;;;;;;16.67;88.43;101346.66;5992155;23;20028;-83
2021/07/14 05:20:17;;;;;;;26.23;15.68;;;;;;;16.73;88.44;101359.06;5974475;24;20026;-83
2021/07/14 05:23:22;;;;;;;29.98;14.70;;;;;;;16.72;87.91;101351.97;5973391;24;20012;-85
2021/07/14 05:26:53;;;;;;;33.72;16.38;;;;;;;16.69;88.22;101344.00;5979274;23;20462;-80
2021/07/14 05:29:45;;;;;;;;;;;;;;;;;;;;;
2021/07/14 05:33:15;;;;;;;36.25;15.50;;;;;;;16.65;88.23;101358.19;5913397;24;20013;-85
2021/07/14 05:39:23;;;;;;;30.25;14.23;;;;;;;16.61;87.89;101361.72;5923462;24;20123;-86
2021/07/14 05:45:13;;;;;;;24.10;13.50;;;;;;;16.67;87.88;101377.66;5920590;24;20058;-81
2021/07/14 05:47:38;;;;;;;25.83;14.80;;;;;;;16.67;88.00;101377.66;5987479;23;20007;-80
2021/07/14 05:50:05;;;;;;;29.58;16.20;;;;;;;16.66;88.32;101382.09;6052255;23;20029;-80
2021/07/14 05:52:47;;;;;;;35.85;16.98;;;;;;;16.63;88.19;101381.19;6124295;23;20006;-79
2021/07/14 05:55:13;;;;;;;36.95;18.13;;;;;;;16.62;88.37;101392.72;6125238;23;20061;-77
2021/07/14 05:57:39;;;;;;;30.08;16.65;;;;;;;16.63;88.18;101387.41;6110358;23;20474;-74
2021/07/14 06:07:06;;;;;;;;;;;;;;;;;;;;;
2021/07/14 06:10:01;;;;;;;;;;;;;;;;;;;;;
2021/07/14 06:13:12;;;;;;;29.90;15.93;;;;;;;16.61;88.63;101398.94;6093870;23;20062;-85
2021/07/14 06:26:50;;;;;;;19.85;12.45;;;;;;;16.65;87.26;101401.56;5917873;24;20033;-83
2021/07/14 06:30:07;;;;;;;;;;;;;;;;;;;;;
2021/07/14 06:33:21;;;;;;;;;;;;;;;;;;;;;
2021/07/14 06:36:02;;;;;;;21.63;12.25;;;;;;;16.71;87.03;101406.00;5890285;24;20093;-84
2021/07/14 06:39:31;;;;;;;22.02;12.68;;;;;;;16.76;86.97;101403.34;5889045;24;20784;-86
2021/07/14 06:49:37;;;;;;;24.33;11.60;;;;;;;16.88;86.52;101399.81;5835887;24;20059;-85
2021/07/14 06:53:04;;;;;;;;;;;;;;;;;;;;;
2021/07/14 07:07:15;;;;;;;;;;;;;;;;;;;;;
2021/07/14 07:10:40;;;;;;;;;;;;;;;;;;;;;
2021/07/14 07:13:51;;;;;;;26.00;14.48;;;;;;;16.95;85.58;101414.91;5758164;24;20026;-84
2021/07/14 07:16:34;;;;;;;27.75;14.40;;;;;;;16.96;85.50;101416.69;5846030;24;20022;-83
2021/07/14 07:23:42;;;;;;;30.27;12.65;;;;;;;17.00;84.85;101407.81;5870116;24;20093;-84
2021/07/14 07:26:30;;;;;;;23.58;12.10;;;;;;;17.12;84.74;101412.19;5825973;24;20075;-85
2021/07/14 07:29:46;;;;;;;28.60;12.30;;;;;;;17.28;84.11;101411.31;5837846;24;20089;-83
2021/07/14 07:32:39;;;;;;;19.40;11.27;;;;;;;17.34;83.80;101397.13;5952108;24;20024;-83
2021/07/14 07:35:56;;;;;;;15.95;11.35;;;;;;;17.34;83.03;101399.78;6013818;23;20408;-86
2021/07/14 07:42:47;;;;;;;;;;;;;;;;;;;;;
2021/07/14 07:49:12;;;;;;;22.13;10.88;;;;;;;17.26;84.16;101388.28;5792235;24;20023;-82
2021/07/14 07:51:46;;;;;;;17.55;10.10;;;;;;;17.36;83.38;101385.59;5897894;24;20123;-81
2021/07/14 07:54:24;;;;;;;16.40;10.07;;;;;;;17.38;83.58;101390.91;5899710;24;20379;-84
2021/07/14 08:12:01;;;;;;;;;;;;;;;;;;;;;
2021/07/14 08:15:28;;;;;;;16.13;8.07;;;;;;;17.98;81.85;101397.78;5712649;25;20029;-84
2021/07/14 08:18:54;;;;;;;12.93;8.35;;;;;;;17.96;81.07;101403.13;5736607;24;20016;-84
2021/07/14 08:21:40;;;;;;;16.52;7.18;;;;;;;18.05;81.01;101395.97;5713674;25;20012;-84
2021/07/14 08:25:41;;;;;;;;;;;;;;;;;;;;;
2021/07/14 08:28:33;;;;;;;17.92;10.00;;;;;;;18.10;81.71;101405.69;5789118;24;20092;-84
2021/07/14 08:34:50;;;;;;;;;;;;;;;;;;;;;
2021/07/14 08:38:18;;;;;;;14.20;7.78;;;;;;;18.10;81.18;101395.03;5817060;24;20056;-84
2021/07/14 08:54:44;;;;;;;;;;;;;;;17.93;82.13;101404.91;5880044;24;20073;-82
2021/07/14 08:58:09;;;;;;;;;;;;;;;;;;;;;
2021/07/14 09:08:27;;;;;;;9.85;5.90;;;;;;;17.99;81.18;101402.22;5964247;23;20019;-81
2021/07/14 09:11:57;;;;;;;;;;;;;;;;;;;;;
2021/07/14 09:15:05;;;;;;;9.15;5.00;;;;;;;18.01;81.23;101411.97;6048529;23;20063;-84
2021/07/14 09:21:36;;;;;;;;;;;;;;;;;;;;;
2021/07/14 09:25:22;;;;;;;8.73;5.10;;;;;;;18.14;81.26;101406.56;6111755;23;20505;-83
2021/07/14 09:28:33;;;;;;;9.25;6.43;;;;;;;18.03;81.55;101403.97;5928162;23;20061;-82
2021/07/14 09:31:55;;;;;;;14.60;6.97;;;;;;;18.26;81.65;101395.84;6079411;23;20002;-83
2021/07/14 09:34:57;;;;;;;;;;;;;;;;;;;;;
2021/07/14 09:37:56;;;;;;;13.05;6.82;;;;;;;18.41;80.11;101384.19;5953580;24;20020;-82
2021/07/14 09:41:27;;;;;;;12.43;7.40;;;;;;;18.34;80.13;101401.13;5952065;24;20012;-85
2021/07/14 09:44:58;;;;;;;;;;;;;;;;;;;;;
2021/07/14 09:47:24;;;;;;;12.82;7.07;;;;;;;17.95;82.50;101395.16;5843877;24;20076;-81
2021/07/14 09:53:48;;;;;;;16.80;7.80;;;;;;;17.73;83.44;101402.28;5915067;24;20100;-85
2021/07/14 09:57:14;;;;;;;17.17;8.50;;;;;;;17.87;82.96;101395.13;6006547;23;20015;-79
2021/07/14 10:00:43;;;;;;;11.35;7.82;;;;;;;17.97;82.05;101388.00;6102381;23;20017;-82
2021/07/14 10:03:42;;;;;;;14.15;8.25;;;;;;;18.07;82.39;101400.41;6010404;23;20118;-84
2021/07/14 10:07:06;;;;;;;14.52;7.15;;;;;;;18.19;81.35;101395.00;5960968;23;20024;-86
2021/07/14 10:09:56;;;;;;;12.23;7.13;;;;;;;18.32;80.44;101401.13;5992054;23;20040;-84
2021/07/14 10:12:53;;;;;;;12.52;7.18;;;;;;;18.41;80.17;101397.50;5996680;23;20034;-86
2021/07/14 10:15:56;;;;;;;;;;;;;;;;;;;;;
2021/07/14 10:29:50;;;;;;;;;;;;;;;;;;;;;
2021/07/14 10:40:04;;;;;;;14.13;6.35;;;;;;;19.13;79.21;101422.72;6045443;23;20523;-82
2021/07/14 10:43:13;;;;;;;7.03;5.47;;;;;;;19.20;76.60;101423.53;6123808;23;20009;-83
2021/07/14 10:46:10;;;;;;;8.55;5.45;;;;;;;19.43;76.56;101420.63;6125846;23;20066;-82
2021/07/14 10:49:41;;;;;;;;;;;;;;;;;;;;;
2021/07/14 10:52:24;;;;;;;10.45;5.18;;;;;;;19.10;77.28;101424.50;6115113;23;20527;-83
2021/07/14 10:55:57;;;;;;;10.48;5.53;;;;;;;19.06;78.71;101420.09;6120754;23;20005;-82
2021/07/14 10:58:51;;;;;;;12.85;6.70;;;;;;;19.02;79.09;101412.16;6126332;23;20033;-83
2021/07/14 11:05:36;;;;;;;11.68;6.60;;;;;;;19.10;78.61;101413.84;6070868;23;20010;-83
2021/07/14 11:08:04;;;;;;;11.15;5.78;;;;;;;19.12;78.91;101418.28;6123544;23;20433;-81
2021/07/14 11:15:04;;;;;;;7.82;5.43;;;;;;;19.23;78.13;101417.28;6078862;23;20018;-84
2021/07/14 11:25:23;;;;;;;10.98;6.50;;;;;;;19.09;78.67;101414.78;5901324;24;20440;-86
2021/07/14 11:28:16;;;;;;;15.75;6.28;;;;;;;19.10;78.76;101406.75;5925089;24;20020;-83
2021/07/14 11:31:36;;;;;;;;;;;;;;;;;;;;;
2021/07/14 11:38:02;;;;;;;13.30;6.68;;;;;;;19.16;78.08;101420.00;5833829;24;20324;-85
2021/07/14 11:41:24;;;;;;;12.70;6.35;;;;;;;19.14;79.13;101423.59;5873910;24;20025;-84
2021/07/14 11:44:46;;;;;;;11.25;6.05;;;;;;;19.18;78.85;101418.22;5819569;24;20022;-83
2021/07/14 11:48:03;;;;;;;;;;;;;;;;;;;;;
2021/07/14 11:54:48;;;;;;;12.47;6.17;;;;;;;19.27;79.28;101419.03;5908103;24;20017;-84
2021/07/14 12:08:39;;;;;;;10.70;7.07;;;;;;;19.77;78.01;101395.31;5923747;24;20021;-82
2021/07/14 12:11:08;;;;;;;9.85;5.55;;;;;;;19.88;76.46;101390.75;5907509;24;20112;-82
2021/07/14 12:14:35;;;;;;;;;;;;;;;;;;;;;
2021/07/14 12:17:55;;;;;;;12.07;6.40;;;;;;;19.82;76.63;101394.38;5965328;23;20039;-82
2021/07/14 12:24:06;;;;;;;12.15;7.15;;;;;;;19.67;77.68;101413.25;6043342;23;20013;-81
2021/07/14 12:27:20;;;;;;;12.65;7.10;;;;;;;19.60;77.64;101406.19;6079823;23;20433;-83
2021/07/14 12:30:51;;;;;;;13.82;6.78;;;;;;;19.59;77.62;101404.41;6096130;23;20010;-84
2021/07/14 12:37:05;;;;;;;9.80;6.90;;;;;;;19.57;76.92;101400.91;6079133;23;20010;-81
2021/07/14 12:40:10;;;;;;;10.45;6.30;;;;;;;19.53;77.06;101395.59;6097846;23;20086;-81
2021/07/14 12:43:22;;;;;;;9.45;6.50;;;;;;;19.71;76.71;101388.28;6098327;23;20007;-86
2021/07/14 12:46:37;;;;;;;;;;;;;;;;;;;;;
2021/07/14 12:50:07;;;;;;;16.48;7.57;;;;;;;19.78;76.43;101389.06;6032107;23;20086;-84
2021/07/14 12:53:19;;;;;;;8.90;7.00;;;;;;;19.78;76.85;101397.06;5953089;23;20018;-84
2021/07/14 12:56:43;;;;;;;10.30;6.85;;;;;;;19.74;77.11;101393.56;6029193;23;20474;-81
2021/07/14 12:59:20;;;;;;;16.50;6.93;;;;;;;19.79;75.78;101383.72;5925081;24;20496;-84
2021/07/14 13:02:27;;;;;;;17.55;7.97;;;;;;;19.87;75.42;101381.88;5925950;24;20017;-82
2021/07/14 13:05:28;;;;;;;15.27;7.18;;;;;;;19.88;76.05;101390.75;5924909;24;20426;-81
2021/07/14 13:08:19;;;;;;;14.35;7.10;;;;;;;19.83;76.20;101398.84;5926163;24;20025;-81
2021/07/14 13:11:35;;;;;;;10.20;6.93;;;;;;;19.81;75.21;101392.63;5894271;24;20019;-84
2021/07/14 13:14:11;;;;;;;11.55;7.28;;;;;;;19.65;76.60;101401.69;5917581;24;20013;-83
2021/07/14 13:16:50;;;;;;;20.08;7.95;;;;;;;19.64;75.47;101403.50;6036139;23;20459;-81
2021/07/14 13:19:18;;;;;;;16.73;7.65;;;;;;;19.71;76.15;101404.31;6059528;23;20020;-84
2021/07/14 13:21:45;;;;;;;13.13;7.28;;;;;;;19.79;75.94;101407.75;6095713;23;20014;-83
2021/07/14 13:24:32;;;;;;;16.58;8.55;;;;;;;20.08;76.14;101401.16;6095210;23;20010;-83
2021/07/14 13:27:07;;;;;;;15.02;7.72;;;;;;;20.03;75.48;101405.69;6097454;23;20010;-81
2021/07/14 13:29:59;;;;;;;15.77;9.00;;;;;;;19.73;75.65;101402.47;6095633;23;20017;-82
2021/07/14 13:32:30;;;;;;;25.90;10.75;;;;;;;19.66;76.96;101401.66;6095282;23;20010;-85
2021/07/14 13:35:07;;;;;;;18.98;9.10;;;;;;;19.58;76.66;101400.00;6095923;23;20062;-83
2021/07/14 13:37:46;;;;;;;16.30;8.43;;;;;;;19.50;76.79;101400.09;6070404;23;20017;-85
2021/07/14 13:40:31;;;;;;;22.35;9.80;;;;;;;19.37;77.80;101405.56;6095488;23;20087;-81
2021/07/14 13:43:12;;;;;;;26.17;11.73;;;;;;;19.38;77.37;101407.34;6093381;23;20671;-84
2021/07/14 13:45:41;;;;;;;23.63;11.98;;;;;;;19.11;79.13;101403.16;6088468;23;20006;-83
2021/07/14 13:48:32;;;;;;;31.20;11.65;;;;;;;19.15;78.88;101396.94;6090210;23;20002;-85
2021/07/14 13:51:01;;;;;;;20.65;10.82;;;;;;;18.96;78.86;101397.97;6097317;23;20018;-80
2021/07/14 13:53:37;;;;;;;20.08;10.93;;;;;;;18.85;79.38;101390.91;6094387;23;20103;-82
2021/07/14 13:56:09;;;;;;;18.50;10.65;;;;;;;18.91;79.45;101389.13;6088461;23;20002;-82
2021/07/14 13:58:35;;;;;;;21.92;10.10;;;;;;;18.99;78.68;101377.50;6069945;23;20014;-83
2021/07/14 14:01:26;;;;;;;22.42;10.85;;;;;;;18.91;79.81;101390.03;6065856;23;20017;-83
2021/07/14 14:04:05;;;;;;;22.45;10.55;;;;;;;18.80;79.75;101381.19;6096312;23;20014;-80
2021/07/14 14:06:53;;;;;;;17.85;9.77;;;;;;;18.90;79.83;101387.41;6096167;23;20006;-83
2021/07/14 14:09:29;;;;;;;21.75;10.25;;;;;;;18.80;79.66;101389.19;6097789;23;20341;-83
2021/07/14 14:12:06;;;;;;;18.65;10.43;;;;;;;18.90;79.63;101392.72;6096107;23;20431;-84
2021/07/14 14:14:53;;;;;;;24.70;13.05;;;;;;;18.70;80.74;101391.94;6073698;23;20018;-83
2021/07/14 14:17:44;;;;;;;23.90;13.02;;;;;;;18.58;81.44;101391.16;6118973;23;20040;-82
2021/07/14 14:20:34;;;;;;;25.23;14.18;;;;;;;18.42;81.83;101382.41;6123876;23;20021;-78
2021/07/14 14:23:25;;;;;;;25.63;14.88;;;;;;;18.41;82.18;101384.19;6125374;23;20006;-81
2021/07/14 14:25:55;;;;;;;25.55;13.57;;;;;;;18.39;82.76;101379.75;6124894;23;20021;-84
2021/07/14 14:28:21;;;;;;;33.38;14.05;;;;;;;18.27;82.97;101389.63;6126767;23;20005;-84
2021/07/14 14:30:49;;;;;;;25.65;14.25;;;;;;;18.26;83.51;101384.28;6126507;23;20474;-83
2021/07/14 14:33:18;;;;;;;29.23;15.20;;;;;;;18.29;83.43;101381.63;6126667;23;20065;-84
2021/07/14 14:35:46;;;;;;;31.60;16.20;;;;;;;18.13;83.80;101379.03;6124155;23;20006;-82
2021/07/14 14:38:21;;;;;;;33.15;15.95;;;;;;;18.10;83.96;101384.38;6125523;23;20056;-82
2021/07/14 14:41:07;;;;;;;29.33;15.93;;;;;;;18.23;83.89;101389.63;6128050;23;20010;-81
2021/07/14 14:43:32;;;;;;;32.50;13.90;;;;;;;18.15;83.71;101382.59;6127389;23;20002;-84
2021/07/14 14:45:58;;;;;;;25.13;14.05;;;;;;;18.15;83.65;101377.25;6125485;23;20002;-77
2021/07/14 14:48:23;;;;;;;34.50;17.00;;;;;;;18.17;84.26;101385.25;6126772;23;20376;-84
2021/07/14 14:51:09;;;;;;;30.67;15.52;;;;;;;18.24;84.30;101386.09;6126300;23;20014;-81
2021/07/14 14:53:35;;;;;;;32.08;16.30;;;;;;;18.26;84.30;101387.84;6125068;23;20381;-78
2021/07/14 14:56:03;;;;;;;29.48;16.50;;;;;;;18.27;83.80;101391.38;6098834;23;20005;-82
2021/07/14 14:58:36;;;;;;;29.27;16.77;;;;;;;18.13;83.93;101379.03;6126418;23;20385;-80
2021/07/14 15:01:24;;;;;;;34.53;16.63;;;;;;;18.17;83.80;101385.25;6100983;23;20018;-83
2021/07/14 15:03:50;;;;;;;33.30;16.55;;;;;;;18.16;84.21;101381.72;6126106;23;20338;-82
2021/07/14 15:06:17;;;;;;;37.33;16.13;;;;;;;18.16;83.97;101379.03;6127350;23;20344;-83
2021/07/14 15:09:02;;;;;;;35.78;15.32;;;;;;;18.30;83.26;101380.69;6126014;23;20002;-84
2021/07/14 15:11:29;;;;;;;33.28;16.05;;;;;;;18.25;83.37;101379.88;6123673;23;20076;-82
2021/07/14 15:13:54;;;;;;;44.20;17.45;;;;;;;18.19;84.52;101383.44;6125622;23;20010;-83
2021/07/14 15:16:20;;;;;;;35.92;17.83;;;;;;;18.14;83.92;101385.28;6126220;23;20010;-81
2021/07/14 15:18:51;;;;;;;37.45;16.35;;;;;;;18.14;84.19;101385.28;6126349;23;20018;-79
2021/07/14 15:21:17;;;;;;;35.20;16.88;;;;;;;18.20;83.50;101386.13;6126065;23;20010;-81
2021/07/14 15:23:48;;;;;;;30.55;16.60;;;;;;;18.07;83.89;101386.19;6126080;23;20001;-82
2021/07/14 15:28:57;;;;;;;31.55;15.65;;;;;;;18.19;83.58;101381.69;6124822;23;20073;-79
2021/07/14 15:31:22;;;;;;;32.92;15.90;;;;;;;18.26;83.21;101384.28;6075820;23;20014;-80
2021/07/14 15:33:48;;;;;;;29.58;14.77;;;;;;;18.37;82.84;101380.66;6120465;23;20012;-79
2021/07/14 15:36:14;;;;;;;28.33;13.77;;;;;;;18.52;82.45;101374.31;6122205;23;20410;-79
2021/07/14 15:38:46;;;;;;;27.58;14.35;;;;;;;18.68;81.36;101377.75;6124612;23;20021;-82
2021/07/14 15:41:12;;;;;;;27.00;13.60;;;;;;;18.57;81.77;101368.06;6121745;23;20010;-79
2021/07/14 15:43:37;;;;;;;33.90;16.38;;;;;;;18.55;82.10;101376.09;6123654;23;20298;-81
2021/07/14 15:46:03;;;;;;;32.95;16.33;;;;;;;18.59;82.43;101376.97;6124841;23;20014;-82
2021/07/14 15:48:28;;;;;;;34.90;15.00;;;;;;;18.70;81.57;101380.41;6126663;23;20014;-79
2021/07/14 15:50:55;;;;;;;29.00;15.88;;;;;;;18.74;82.12;101382.16;6101377;23;20014;-80
2021/07/14 15:53:21;;;;;;;34.65;15.68;;;;;;;18.79;81.54;101375.00;6137091;23;20333;-84
2021/07/14 15:55:49;;;;;;;30.50;14.88;;;;;;;18.83;81.27;101373.19;6128143;23;20006;-83
2021/07/14 15:58:35;;;;;;;30.60;13.70;;;;;;;18.80;81.33;101374.09;6127809;23;20010;-83
2021/07/14 16:01:01;;;;;;;28.55;15.18;;;;;;;18.76;81.49;101372.38;6127596;23;20345;-80
2021/07/14 16:03:27;;;;;;;25.60;13.55;;;;;;;18.85;81.48;101366.91;6127784;23;20017;-80
2021/07/14 16:05:57;;;;;;;24.38;13.77;;;;;;;18.78;81.82;101375.00;6127412;23;20321;-80
2021/07/14 16:08:26;;;;;;;23.77;14.15;;;;;;;18.81;81.17;101366.97;6128102;23;20014;-79
2021/07/14 16:10:53;;;;;;;28.38;13.77;;;;;;;18.81;81.17;101370.50;6128128;23;20025;-82
2021/07/14 16:13:23;;;;;;;25.73;13.18;;;;;;;18.86;81.19;101360.69;6128236;23;20016;-80
2021/07/14 16:15:51;;;;;;;23.60;13.13;;;;;;;18.77;81.08;101370.56;6127765;23;20429;-82
2021/07/14 16:18:27;;;;;;;25.27;13.48;;;;;;;18.89;81.12;101353.63;6128931;23;20024;-83
2021/07/14 16:20:58;;;;;;;27.75;12.98;;;;;;;18.93;81.18;101366.03;6129165;23;20014;-79
2021/07/14 16:23:29;;;;;;;27.98;12.80;;;;;;;18.76;81.41;101359.03;6129136;23;20085;-81
2021/07/14 16:25:58;;;;;;;28.95;13.13;;;;;;;18.78;82.08;101359.00;6128515;23;20009;-80
2021/07/14 16:28:47;;;;;;;28.58;12.95;;;;;;;18.59;82.48;101366.28;6129393;23;20025;-82
2021/07/14 16:31:14;;;;;;;38.70;14.50;;;;;;;18.47;83.48;101352.16;6127144;23;20045;-78
2021/07/14 16:33:39;;;;;;;40.50;15.10;;;;;;;18.47;83.54;101357.47;6129641;23;20449;-82
2021/07/14 16:36:25;;;;;;;42.38;15.50;;;;;;;18.32;83.89;101346.94;6128681;23;20010;-80
2021/07/14 16:38:51;;;;;;;46.15;15.50;;;;;;;18.33;84.33;101348.72;6128504;23;20016;-82